createdAt,value
2023-04-16T00:01:53.312Z,100870.97
2023-04-16T00:11:55.793Z,100864.44
2023-04-16T00:21:57.904Z,100862.72
2023-04-16T00:32:00.092Z,100871.78
2023-04-16T00:42:02.176Z,100863.25
2023-04-16T00:52:04.489Z,100877.78
2023-04-16T01:02:06.720Z,100878.16
2023-04-16T01:12:08.860Z,100875.53
2023-04-16T01:22:11.356Z,100888.13
2023-04-16T01:32:13.420Z,100887.38
2023-04-16T01:42:16.800Z,100900.25
2023-04-16T01:52:18.948Z,100892.75
2023-04-16T02:02:21.184Z,100892.34
2023-04-16T02:12:23.414Z,100883.69
2023-04-16T02:22:25.813Z,100891.03
2023-04-16T02:32:28.225Z,100895.63
2023-04-16T02:42:30.367Z,100899.63
2023-04-16T02:52:33.575Z,100905.38
2023-04-16T03:02:36.044Z,100896.78
2023-04-16T03:12:39.129Z,100898.75
2023-04-16T03:22:42.442Z,100898.19
2023-04-16T03:32:44.575Z,100903.00
2023-04-16T03:42:46.785Z,100913.47
2023-04-16T03:52:49.431Z,100914.13
2023-04-16T04:02:53.083Z,100919.28
2023-04-16T04:12:55.889Z,100919.31
2023-04-16T04:22:58.495Z,100922.88
2023-04-16T04:33:01.880Z,100941.09
2023-04-16T04:43:04.138Z,100946.50
2023-04-16T04:53:10.277Z,100948.31
2023-04-16T05:03:19.353Z,100952.19
2023-04-16T05:13:21.589Z,100971.06
2023-04-16T05:23:23.645Z,100979.06
2023-04-16T05:33:25.741Z,100976.09
2023-04-16T05:43:27.821Z,100985.66
2023-04-16T05:53:29.914Z,101011.38
2023-04-16T06:03:32.071Z,101019.44
2023-04-16T06:13:34.191Z,101016.75
2023-04-16T06:23:36.291Z,101021.06
2023-04-16T06:33:38.376Z,101023.97
2023-04-16T06:43:40.673Z,101030.19
2023-04-16T06:53:42.921Z,101041.66
2023-04-16T07:03:45.155Z,101040.22
2023-04-16T07:13:47.531Z,101058.16
2023-04-16T07:23:49.645Z,101064.44
2023-04-16T07:33:54.592Z,101070.03
2023-04-16T07:44:01.040Z,101066.47
2023-04-16T07:54:03.290Z,101070.22
2023-04-16T08:04:05.483Z,101088.13
2023-04-16T08:14:07.747Z,101099.50
2023-04-16T08:24:09.922Z,101117.97
2023-04-16T08:34:13.720Z,101129.72
2023-04-16T08:44:21.948Z,101128.88
2023-04-16T08:54:33.091Z,101139.59
2023-04-16T09:04:37.175Z,101139.81
2023-04-16T09:14:41.857Z,101145.53
2023-04-16T09:24:44.403Z,101153.94
2023-04-16T09:35:01.013Z,101168.75
2023-04-16T09:45:05.905Z,101174.81
2023-04-16T09:55:08.384Z,101177.38
2023-04-16T10:05:16.699Z,101182.41
2023-04-16T10:15:19.016Z,101187.22
2023-04-16T10:25:21.787Z,101181.59
2023-04-16T10:35:25.442Z,101185.47
2023-04-16T10:45:32.861Z,101173.91
2023-04-16T10:55:40.043Z,101173.28
2023-04-16T11:05:47.162Z,101172.22
2023-04-16T11:15:49.348Z,101167.38
2023-04-16T11:25:56.998Z,101165.78
2023-04-16T11:35:59.253Z,101172.91
2023-04-16T11:46:20.168Z,101171.66
2023-04-16T11:56:35.800Z,101173.50
2023-04-16T12:06:37.957Z,101171.94
2023-04-16T12:16:41.336Z,101180.53
2023-04-16T12:26:46.716Z,101176.69
2023-04-16T12:37:04.245Z,101181.31
2023-04-16T12:47:06.894Z,101186.47
2023-04-16T12:57:09.002Z,101179.78
2023-04-16T13:07:11.360Z,101181.44
2023-04-16T13:17:13.865Z,101178.47
2023-04-16T13:27:17.085Z,101180.31
2023-04-16T13:37:19.484Z,101167.06
2023-04-16T13:47:22.070Z,101161.22
2023-04-16T13:57:25.718Z,101158.66
2023-04-16T14:07:29.287Z,101164.34
2023-04-16T14:17:31.655Z,101162.91
2023-04-16T14:27:34.456Z,101164.25
2023-04-16T14:37:36.939Z,101164.59
2023-04-16T14:47:46.405Z,101170.16
2023-04-16T14:57:48.728Z,101154.09
2023-04-16T15:07:51.342Z,101161.53
2023-04-16T15:17:53.651Z,101154.59
2023-04-16T15:27:55.891Z,101170.66
2023-04-16T15:37:58.495Z,101165.88
2023-04-16T15:48:00.889Z,101169.50
2023-04-16T15:58:03.158Z,101162.06
2023-04-16T16:08:12.244Z,101165.22
2023-04-16T16:18:14.677Z,101169.38
2023-04-16T16:28:17.044Z,101175.25
2023-04-16T16:38:19.766Z,101171.31
2023-04-16T16:48:22.133Z,101176.72
2023-04-16T16:58:24.269Z,101180.06
2023-04-16T17:08:26.351Z,101183.88
2023-04-16T17:18:28.641Z,101198.63
2023-04-16T17:28:30.745Z,101184.22
2023-04-16T17:38:33.922Z,101190.53
2023-04-16T17:48:36.004Z,101194.81
2023-04-16T17:58:38.341Z,101195.13
2023-04-16T18:08:40.710Z,101198.31
2023-04-16T18:18:43.966Z,101206.41
2023-04-16T18:28:46.028Z,101218.53
2023-04-16T18:39:00.183Z,101221.13
2023-04-16T18:49:04.008Z,101238.34
2023-04-16T18:59:06.583Z,101240.41
2023-04-16T19:09:11.294Z,101242.09
2023-04-16T19:19:14.011Z,101252.69
2023-04-16T19:29:17.905Z,101260.19
2023-04-16T19:39:19.973Z,101260.69
2023-04-16T19:49:22.387Z,101274.22
2023-04-16T19:59:28.363Z,101276.91
2023-04-16T20:09:30.500Z,101291.97
2023-04-16T20:19:37.781Z,101283.84
2023-04-16T20:29:41.343Z,101296.38
2023-04-16T20:39:45.098Z,101289.06
2023-04-16T20:49:47.255Z,101288.69
2023-04-16T20:59:49.427Z,101287.66
2023-04-16T21:09:51.749Z,101288.34
2023-04-16T21:19:53.939Z,101290.50
2023-04-16T21:29:55.982Z,101284.44
2023-04-16T21:39:58.031Z,101287.59
2023-04-16T21:50:00.178Z,101288.81
2023-04-16T22:00:02.879Z,101289.69
2023-04-16T22:10:08.683Z,101277.31
2023-04-16T22:20:13.717Z,101282.75
2023-04-16T22:30:15.987Z,101284.47
2023-04-16T22:40:18.182Z,101282.69
2023-04-16T22:50:20.709Z,101277.22
2023-04-16T23:00:22.876Z,101288.22
2023-04-16T23:10:24.921Z,101281.44
2023-04-16T23:20:28.935Z,101291.88
2023-04-16T23:30:30.991Z,101301.59
2023-04-16T23:40:33.026Z,101293.78
2023-04-16T23:50:35.731Z,101301.56
